Time;durP1;ratioP1;P1;durP2;ratioP2;P2;SDS_P1;SDS_P2;PMS_P1;PMS_P2;Temp;Humidity;BMP_temperature;BMP_pressure;BME280_temperature;BME280_humidity;BME280_pressure;Samples;Min_cycle;Max_cycle;Signal;HPM_P1;HPM_P2
2022/08/04 00:00:39;;;;;;;7.75;1.88;;;20.70;99.90;;;;;;5031485;28;20294;-72
2022/08/04 00:03:13;;;;;;;4.10;1.08;;;20.70;99.90;;;;;;5051278;28;20072;-71
2022/08/04 00:05:46;;;;;;;4.47;1.30;;;20.70;99.90;;;;;;5046918;28;20441;-71
2022/08/04 00:08:22;;;;;;;4.50;1.60;;;20.60;99.90;;;;;;5042013;28;20127;-72
2022/08/04 00:10:54;;;;;;;6.03;1.40;;;20.60;99.90;;;;;;5043632;28;20056;-72
2022/08/04 00:13:25;;;;;;;4.75;1.65;;;20.60;99.90;;;;;;5058261;28;20036;-72
2022/08/04 00:15:53;;;;;;;5.00;1.35;;;20.60;99.90;;;;;;5038295;28;20116;-72
2022/08/04 00:18:26;;;;;;;6.60;1.70;;;20.50;99.90;;;;;;5048558;28;20036;-71
2022/08/04 00:20:56;;;;;;;3.10;1.30;;;20.60;99.90;;;;;;5047839;28;20358;-71
2022/08/04 00:23:25;;;;;;;2.60;1.55;;;20.50;99.90;;;;;;5049289;28;20366;-72
2022/08/04 00:25:52;;;;;;;3.33;1.30;;;20.50;99.90;;;;;;5044370;28;20037;-71
2022/08/04 00:28:19;;;;;;;3.67;1.60;;;20.50;99.90;;;;;;5049854;28;20397;-72
2022/08/04 00:30:45;;;;;;;4.10;1.63;;;20.50;99.90;;;;;;5038516;28;20057;-72
2022/08/04 00:33:17;;;;;;;4.28;2.33;;;20.50;99.90;;;;;;5061356;28;20120;-72
2022/08/04 00:35:44;;;;;;;4.57;1.30;;;20.50;99.90;;;;;;5043582;28;20061;-72
2022/08/04 00:38:10;;;;;;;5.68;1.63;;;20.50;99.90;;;;;;5046954;28;20091;-71
2022/08/04 00:40:46;;;;;;;;;;;20.50;99.90;;;;;;5047835;28;20072;-71
2022/08/04 00:43:38;;;;;;;7.57;1.95;;;20.40;99.90;;;;;;5041041;28;19980;-71
2022/08/04 00:46:13;;;;;;;3.42;1.70;;;20.50;99.90;;;;;;5042290;28;20446;-72
2022/08/04 00:49:00;;;;;;;9.43;1.75;;;20.40;99.90;;;;;;5043833;28;20037;-71
2022/08/04 00:51:40;;;;;;;5.65;1.90;;;20.50;99.90;;;;;;5037784;28;20046;-72
2022/08/04 00:54:20;;;;;;;4.85;1.58;;;20.50;99.90;;;;;;5042563;28;20086;-71
2022/08/04 00:56:58;;;;;;;2.45;1.58;;;20.50;99.90;;;;;;5054324;28;20071;-72
2022/08/04 00:59:35;;;;;;;4.60;1.58;;;20.50;99.90;;;;;;5044969;28;20650;-71
2022/08/04 01:02:33;;;;;;;5.47;1.52;;;20.50;99.90;;;;;;5042666;28;20037;-72
2022/08/04 01:05:05;;;;;;;5.60;1.70;;;20.50;99.90;;;;;;5045409;28;20382;-71
2022/08/04 01:07:55;;;;;;;4.75;2.13;;;20.40;99.90;;;;;;5046800;28;20033;-71
2022/08/04 01:10:32;;;;;;;4.90;1.85;;;20.50;99.90;;;;;;5039768;28;20497;-71
2022/08/04 01:13:20;;;;;;;3.88;1.58;;;20.50;99.90;;;;;;5045498;28;20489;-72
2022/08/04 01:16:10;;;;;;;9.23;2.08;;;20.50;99.90;;;;;;5024450;28;20192;-71
2022/08/04 01:18:54;;;;;;;3.60;1.67;;;20.40;99.90;;;;;;5045447;28;20287;-71
2022/08/04 01:21:37;;;;;;;4.15;1.85;;;20.40;99.90;;;;;;5042030;28;20486;-71
2022/08/04 01:24:59;;;;;;;5.55;1.67;;;20.40;99.90;;;;;;5047833;28;20512;-72
2022/08/04 01:28:02;;;;;;;8.95;1.90;;;20.40;99.90;;;;;;5004470;28;20041;-72
2022/08/04 01:30:30;;;;;;;8.70;1.60;;;20.40;99.90;;;;;;5024895;28;20076;-72
2022/08/04 01:33:05;;;;;;;4.65;1.45;;;20.40;99.90;;;;;;5037963;28;20527;-71
2022/08/04 01:35:41;;;;;;;7.10;1.92;;;20.40;99.90;;;;;;5046066;28;20067;-72
2022/08/04 01:38:33;;;;;;;4.87;2.10;;;20.40;99.90;;;;;;5041272;28;20077;-72
2022/08/04 01:41:06;;;;;;;7.18;2.15;;;20.40;99.90;;;;;;5059449;28;20040;-72
2022/08/04 01:43:33;;;;;;;4.32;1.58;;;20.30;99.90;;;;;;5053094;28;20049;-72
2022/08/04 01:46:02;;;;;;;3.25;1.90;;;20.40;99.90;;;;;;5049342;28;20109;-72
2022/08/04 01:48:29;;;;;;;4.65;1.70;;;20.30;99.90;;;;;;5055689;28;20052;-71
2022/08/04 01:51:03;;;;;;;3.85;1.70;;;20.40;99.90;;;;;;5046426;28;20471;-71
2022/08/04 01:53:34;;;;;;;5.05;1.60;;;20.40;99.90;;;;;;5050867;28;20585;-71
2022/08/04 01:56:06;;;;;;;5.63;2.20;;;20.40;99.90;;;;;;5058374;28;20040;-72
2022/08/04 01:58:33;;;;;;;3.30;1.60;;;20.40;99.90;;;;;;5048778;28;20056;-72
2022/08/04 02:01:03;;;;;;;4.07;1.60;;;20.40;99.90;;;;;;5045906;28;20087;-72
2022/08/04 02:03:29;;;;;;;3.70;1.52;;;20.40;99.90;;;;;;5051609;28;20039;-71
2022/08/04 02:06:07;;;;;;;;;;;20.40;99.90;;;;;;5043014;28;20037;-72
2022/08/04 02:08:40;;;;;;;;;;;20.40;99.90;;;;;;5046512;28;20007;-72
2022/08/04 02:11:11;;;;;;;3.30;1.73;;;20.40;99.90;;;;;;5041772;28;20007;-71
2022/08/04 02:13:53;;;;;;;4.60;2.40;;;20.50;99.90;;;;;;5047369;28;20040;-72
2022/08/04 02:16:37;;;;;;;3.63;1.95;;;20.40;99.90;;;;;;5035260;28;20132;-72
2022/08/04 02:19:31;;;;;;;5.05;2.05;;;20.40;99.90;;;;;;5033890;28;20516;-71
2022/08/04 02:22:06;;;;;;;4.53;2.03;;;20.50;99.90;;;;;;5031080;28;20076;-71
2022/08/04 02:24:32;;;;;;;4.40;2.10;;;20.50;99.90;;;;;;5049714;28;20087;-72
2022/08/04 02:27:01;;;;;;;5.97;2.13;;;20.50;99.90;;;;;;5043987;28;20498;-72
2022/08/04 02:29:58;;;;;;;5.07;2.05;;;20.40;99.90;;;;;;5057918;28;20120;-71
2022/08/04 02:32:29;;;;;;;4.40;2.00;;;20.40;99.90;;;;;;5069676;22;20037;-69
2022/08/04 02:35:12;;;;;;;4.70;2.58;;;20.40;99.90;;;;;;5070670;28;20083;-69
2022/08/04 02:37:51;;;;;;;6.13;2.08;;;20.50;99.90;;;;;;5036117;28;20045;-69
2022/08/04 02:40:20;;;;;;;4.53;2.33;;;20.50;99.90;;;;;;5061699;28;20044;-69
2022/08/04 02:42:46;;;;;;;4.78;2.30;;;20.50;99.90;;;;;;5003359;28;20564;-69
2022/08/04 02:45:12;;;;;;;5.18;2.30;;;20.50;99.90;;;;;;5042748;28;20124;-70
2022/08/04 02:47:38;;;;;;;4.78;2.22;;;20.50;99.90;;;;;;5018999;28;20033;-69
2022/08/04 02:50:07;;;;;;;4.45;2.50;;;20.60;99.90;;;;;;5017255;28;20095;-69
2022/08/04 02:52:34;;;;;;;5.63;2.30;;;20.60;99.90;;;;;;5023007;28;20077;-69
2022/08/04 02:55:01;;;;;;;6.75;2.10;;;20.60;99.90;;;;;;5027102;28;20371;-70
2022/08/04 02:57:30;;;;;;;4.07;1.77;;;20.60;99.90;;;;;;5044889;28;20136;-70
2022/08/04 03:00:13;;;;;;;5.05;2.90;;;20.60;99.90;;;;;;5026908;28;20036;-70
2022/08/04 03:02:58;;;;;;;4.45;2.17;;;20.60;99.90;;;;;;5024862;28;20111;-70
2022/08/04 03:05:46;;;;;;;5.75;2.42;;;20.60;99.90;;;;;;5026839;28;20301;-69
2022/08/04 03:08:38;;;;;;;4.13;1.70;;;20.60;99.90;;;;;;5038593;28;20049;-69
2022/08/04 03:11:31;;;;;;;3.88;2.05;;;20.60;99.90;;;;;;5014773;28;20036;-70
2022/08/04 03:14:05;;;;;;;5.10;2.10;;;20.60;99.90;;;;;;5040141;28;20041;-70
2022/08/04 03:17:15;;;;;;;7.05;2.17;;;20.60;99.90;;;;;;5025940;28;20040;-70
2022/08/04 03:20:03;;;;;;;4.82;2.28;;;20.60;99.90;;;;;;5040337;28;20041;-70
2022/08/04 03:23:06;;;;;;;7.50;2.28;;;20.60;99.90;;;;;;5028625;28;20107;-70
2022/08/04 03:25:59;;;;;;;3.92;1.90;;;20.50;99.90;;;;;;5036955;28;20083;-70
2022/08/04 03:28:42;;;;;;;5.10;2.28;;;20.50;99.90;;;;;;5025999;28;20382;-70
2022/08/04 03:31:39;;;;;;;6.20;2.10;;;20.50;99.90;;;;;;5020224;28;20041;-71
2022/08/04 03:34:23;;;;;;;6.90;2.10;;;20.50;99.90;;;;;;5021397;28;20033;-70
2022/08/04 03:37:08;;;;;;;6.15;2.17;;;20.40;99.90;;;;;;5040765;28;20137;-70
2022/08/04 03:39:52;;;;;;;4.03;1.85;;;20.40;99.90;;;;;;5022125;28;20045;-70
2022/08/04 03:42:50;;;;;;;5.30;2.08;;;20.40;99.90;;;;;;5023206;28;20042;-70
2022/08/04 03:45:19;;;;;;;4.43;2.05;;;20.40;99.90;;;;;;5021012;28;20033;-70
2022/08/04 03:48:19;;;;;;;3.78;2.20;;;20.40;99.90;;;;;;5044426;28;20048;-70
2022/08/04 03:53:49;;;;;;;5.45;2.03;;;20.30;99.90;;;;;;5011148;28;20044;-70
2022/08/04 03:56:37;;;;;;;5.00;2.10;;;20.30;99.90;;;;;;5020828;28;20075;-70
2022/08/04 03:59:09;;;;;;;10.20;2.20;;;20.30;99.90;;;;;;5020830;28;20036;-71
2022/08/04 04:01:53;;;;;;;6.40;2.20;;;20.30;99.90;;;;;;5027320;28;20190;-70
2022/08/04 04:04:51;;;;;;;4.35;2.08;;;20.20;99.90;;;;;;5008934;28;20041;-70
2022/08/04 04:07:32;;;;;;;6.07;2.03;;;20.20;99.90;;;;;;4962186;28;20428;-70
2022/08/04 04:10:28;;;;;;;3.55;2.00;;;20.20;99.90;;;;;;5023624;28;20059;-70
2022/08/04 04:13:16;;;;;;;6.70;2.38;;;20.20;99.90;;;;;;5017672;28;20063;-70
2022/08/04 04:15:58;;;;;;;3.40;2.22;;;20.20;99.90;;;;;;5020407;28;20094;-70
2022/08/04 04:18:54;;;;;;;4.03;2.10;;;20.20;99.90;;;;;;5024295;28;20045;-70
2022/08/04 04:22:06;;;;;;;9.03;2.93;;;20.10;99.90;;;;;;5022504;28;20033;-70
2022/08/04 04:24:39;;;;;;;4.00;2.20;;;20.10;99.90;;;;;;5016993;28;20045;-71
2022/08/04 04:27:05;;;;;;;4.25;2.05;;;20.10;99.90;;;;;;5035030;28;20184;-70
2022/08/04 04:30:00;;;;;;;5.18;2.10;;;20.00;99.90;;;;;;5042292;28;20128;-71
2022/08/04 04:32:46;;;;;;;4.30;2.38;;;20.00;99.90;;;;;;5040267;28;20048;-70
2022/08/04 04:35:26;;;;;;;6.45;3.05;;;20.00;99.90;;;;;;4996528;28;20064;-70
2022/08/04 04:38:10;;;;;;;5.68;2.13;;;20.00;99.90;;;;;;5020256;28;20584;-70
2022/08/04 04:40:56;;;;;;;4.25;2.25;;;20.00;99.90;;;;;;5033327;28;20045;-70
2022/08/04 04:43:34;;;;;;;5.55;3.05;;;20.00;99.90;;;;;;5037405;28;20040;-70
2022/08/04 04:46:22;;;;;;;7.40;2.70;;;20.00;99.90;;;;;;5035281;28;20044;-70
2022/08/04 04:48:52;;;;;;;6.25;2.33;;;20.10;99.90;;;;;;5025835;28;20492;-70
2022/08/04 04:51:36;;;;;;;6.90;2.47;;;20.10;99.90;;;;;;5039230;28;20051;-70
2022/08/04 04:54:09;;;;;;;3.88;2.13;;;20.10;99.90;;;;;;5043239;28;20120;-70
2022/08/04 04:56:49;;;;;;;5.78;2.58;;;20.00;99.90;;;;;;5023430;28;20093;-71
2022/08/04 04:59:20;;;;;;;4.65;2.20;;;20.10;99.90;;;;;;5019776;28;20045;-71
2022/08/04 05:01:55;;;;;;;5.80;2.72;;;20.10;99.90;;;;;;5021560;28;20082;-70
2022/08/04 05:04:46;;;;;;;4.05;2.28;;;20.10;99.90;;;;;;5021993;28;20098;-70
2022/08/04 05:07:27;;;;;;;6.38;3.15;;;20.20;99.90;;;;;;5035601;28;20041;-70
2022/08/04 05:09:58;;;;;;;4.97;2.60;;;20.20;99.90;;;;;;5035257;28;20059;-70
2022/08/04 05:12:44;;;;;;;5.82;2.83;;;20.20;99.90;;;;;;5040430;28;20087;-70
2022/08/04 05:15:11;;;;;;;5.32;2.72;;;20.20;99.90;;;;;;5018404;28;20095;-70
2022/08/04 05:17:40;;;;;;;3.97;2.60;;;20.30;99.90;;;;;;5007591;28;20045;-70
2022/08/04 05:20:19;;;;;;;7.55;2.92;;;20.30;99.90;;;;;;5021867;28;20041;-70
2022/08/04 05:22:54;;;;;;;6.17;2.30;;;20.40;99.90;;;;;;5036904;28;20086;-70
2022/08/04 05:25:42;;;;;;;6.20;2.72;;;20.40;99.90;;;;;;5025747;28;20041;-70
2022/08/04 05:28:25;;;;;;;5.47;2.70;;;20.40;99.90;;;;;;5022196;28;20041;-70
2022/08/04 05:31:04;;;;;;;6.35;2.60;;;20.50;99.90;;;;;;5041478;28;20064;-70
2022/08/04 05:33:48;;;;;;;7.05;2.88;;;20.50;99.90;;;;;;5034081;28;20041;-72
2022/08/04 05:36:23;;;;;;;7.03;3.42;;;20.60;99.90;;;;;;5017858;28;20037;-70
2022/08/04 05:38:53;;;;;;;6.25;3.03;;;20.60;99.90;;;;;;5038360;28;20425;-71
2022/08/04 05:41:19;;;;;;;4.68;2.85;;;20.60;99.90;;;;;;5019164;28;20275;-71
2022/08/04 05:43:46;;;;;;;5.97;2.67;;;20.70;99.90;;;;;;5019198;28;20405;-70
2022/08/04 05:46:14;;;;;;;8.15;3.00;;;20.70;99.90;;;;;;5024694;28;20420;-72
2022/08/04 05:48:41;;;;;;;9.65;3.00;;;20.80;99.90;;;;;;5037656;28;20044;-70
2022/08/04 05:51:09;;;;;;;6.88;3.33;;;20.80;99.90;;;;;;5026974;28;20078;-71
2022/08/04 05:53:36;;;;;;;8.02;2.92;;;20.90;99.90;;;;;;5034645;28;20425;-70
2022/08/04 05:56:05;;;;;;;9.05;2.90;;;21.00;99.90;;;;;;5035032;28;20059;-70
2022/08/04 05:58:31;;;;;;;11.77;3.20;;;21.00;99.90;;;;;;5031924;28;20047;-70
2022/08/04 06:01:01;;;;;;;6.20;3.47;;;21.10;99.90;;;;;;5053955;28;20076;-70
2022/08/04 06:03:29;;;;;;;11.07;3.25;;;21.20;99.90;;;;;;5044297;28;20408;-70
2022/08/04 06:05:57;;;;;;;8.80;3.38;;;21.30;99.90;;;;;;5053026;28;20121;-70
2022/08/04 06:08:23;;;;;;;6.32;3.13;;;21.30;99.90;;;;;;5018638;28;20045;-70
2022/08/04 06:10:52;;;;;;;6.85;2.67;;;21.40;99.90;;;;;;5035984;28;20319;-70
2022/08/04 06:13:24;;;;;;;5.47;2.50;;;21.50;99.90;;;;;;5057784;28;20095;-71
2022/08/04 06:15:51;;;;;;;4.80;2.72;;;21.60;99.90;;;;;;5026292;28;20170;-70
2022/08/04 06:18:22;;;;;;;6.97;2.72;;;21.60;99.90;;;;;;5026706;28;20068;-70
2022/08/04 06:20:50;;;;;;;4.97;2.80;;;21.70;99.90;;;;;;5044721;28;20044;-70
2022/08/04 06:23:19;;;;;;;5.80;3.38;;;21.80;99.90;;;;;;5030399;28;20040;-70
2022/08/04 06:25:51;;;;;;;9.07;3.55;;;21.90;99.90;;;;;;5052423;28;20041;-70
2022/08/04 06:28:18;;;;;;;8.10;3.38;;;21.90;99.90;;;;;;5028319;28;20048;-70
2022/08/04 06:30:46;;;;;;;5.78;3.25;;;21.90;99.90;;;;;;5024428;28;20109;-70
2022/08/04 06:33:32;;;;;;;7.50;3.75;;;21.90;99.90;;;;;;5027508;28;20052;-70
2022/08/04 06:35:59;;;;;;;5.85;2.95;;;22.00;99.90;;;;;;5045108;28;20098;-70
2022/08/04 06:38:27;;;;;;;6.05;3.38;;;22.00;99.90;;;;;;5025388;28;20050;-71
2022/08/04 06:40:56;;;;;;;8.30;3.38;;;22.00;99.90;;;;;;5028652;28;20041;-70
2022/08/04 06:43:23;;;;;;;6.00;3.15;;;22.00;99.90;;;;;;5026474;28;20060;-70
2022/08/04 06:45:51;;;;;;;6.90;3.72;;;22.10;99.90;;;;;;5040178;28;20061;-70
2022/08/04 06:48:18;;;;;;;6.20;3.17;;;22.10;99.90;;;;;;5026214;28;20047;-70
2022/08/04 06:50:48;;;;;;;9.35;3.50;;;22.10;99.90;;;;;;5026375;28;20051;-70
2022/08/04 06:53:14;;;;;;;6.82;2.90;;;22.10;99.90;;;;;;5021982;28;20048;-70
2022/08/04 06:55:42;;;;;;;5.50;3.50;;;22.10;99.90;;;;;;5027724;28;20040;-70
2022/08/04 06:58:08;;;;;;;7.43;2.95;;;22.10;99.90;;;;;;5017747;28;20045;-70
2022/08/04 07:00:35;;;;;;;6.93;3.50;;;22.10;99.90;;;;;;5025534;28;20060;-70
2022/08/04 07:03:02;;;;;;;7.97;4.13;;;22.10;99.90;;;;;;5047313;28;20537;-71
2022/08/04 07:05:28;;;;;;;5.45;3.10;;;22.20;99.90;;;;;;5029474;28;20045;-70
2022/08/04 07:07:55;;;;;;;;;;;22.20;99.90;;;;;;5038778;28;20040;-70
2022/08/04 07:10:21;;;;;;;7.30;3.85;;;22.20;99.90;;;;;;5049784;28;20019;-70
2022/08/04 07:12:48;;;;;;;6.30;3.47;;;22.30;99.90;;;;;;5048718;28;20045;-71
2022/08/04 07:15:16;;;;;;;7.93;3.65;;;22.40;99.90;;;;;;5029498;28;20044;-70
2022/08/04 07:17:45;;;;;;;7.35;2.80;;;22.40;99.90;;;;;;5043873;28;20086;-70
2022/08/04 07:20:11;;;;;;;6.38;2.90;;;22.50;99.90;;;;;;5041179;28;20056;-70
2022/08/04 07:22:37;;;;;;;;;;;22.50;99.90;;;;;;5045692;28;20485;-70
2022/08/04 07:25:08;;;;;;;6.22;2.97;;;22.50;99.90;;;;;;5043769;28;19917;-70
2022/08/04 07:27:34;;;;;;;6.03;3.03;;;22.60;99.90;;;;;;5011810;28;20037;-70
2022/08/04 07:29:59;;;;;;;;;;;22.70;99.90;;;;;;5024693;28;20048;-70
2022/08/04 07:32:26;;;;;;;8.35;3.00;;;22.70;99.90;;;;;;5047795;28;19923;-70
2022/08/04 07:34:53;;;;;;;5.78;3.20;;;22.70;99.90;;;;;;5043883;28;20044;-70
2022/08/04 07:37:18;;;;;;;7.25;3.55;;;22.80;99.90;;;;;;5044818;28;20095;-70
2022/08/04 07:39:44;;;;;;;;;;;22.90;99.90;;;;;;5047599;28;20573;-70
2022/08/04 07:42:10;;;;;;;5.32;3.00;;;22.90;99.90;;;;;;5029317;28;19917;-70
2022/08/04 07:44:36;;;;;;;;;;;23.00;99.90;;;;;;5046409;28;20120;-70
2022/08/04 07:47:04;;;;;;;7.75;3.55;;;23.00;99.90;;;;;;5041602;28;20046;-72
2022/08/04 07:49:31;;;;;;;6.70;2.90;;;23.00;99.90;;;;;;5023850;28;20037;-70
2022/08/04 07:51:56;;;;;;;6.05;3.13;;;22.90;99.90;;;;;;5038326;28;20450;-71
2022/08/04 07:54:22;;;;;;;;;;;23.00;99.90;;;;;;5025869;28;20072;-70
2022/08/04 07:56:48;;;;;;;6.25;3.50;;;23.00;99.90;;;;;;5024919;28;19982;-70
2022/08/04 07:59:15;;;;;;;6.28;3.63;;;23.00;99.90;;;;;;5044301;28;20401;-70
2022/08/04 08:01:41;;;;;;;6.32;3.20;;;23.00;99.90;;;;;;5041626;28;20043;-70
2022/08/04 08:04:09;;;;;;;5.82;3.17;;;23.00;99.90;;;;;;5024308;28;20045;-70
2022/08/04 08:06:40;;;;;;;6.53;3.10;;;23.00;99.90;;;;;;5041869;28;20041;-70
2022/08/04 08:09:12;;;;;;;6.07;2.80;;;23.10;99.90;;;;;;5045461;28;20033;-70
2022/08/04 08:11:38;;;;;;;6.03;3.05;;;23.10;99.90;;;;;;5025481;28;20048;-70
2022/08/04 08:14:03;;;;;;;;;;;23.10;99.90;;;;;;5044973;28;20043;-70
2022/08/04 08:16:32;;;;;;;9.25;3.30;;;23.10;99.90;;;;;;5042606;28;19921;-70
2022/08/04 08:18:58;;;;;;;10.43;2.95;;;23.10;99.90;;;;;;5007153;28;20053;-71
2022/08/04 08:21:23;;;;;;;;;;;23.20;99.90;;;;;;5044159;28;20704;-70
2022/08/04 08:23:49;;;;;;;7.75;3.50;;;23.10;99.90;;;;;;5027248;28;20296;-70
2022/08/04 08:26:15;;;;;;;5.38;2.67;;;23.20;99.90;;;;;;5044672;28;20041;-70
2022/08/04 08:28:41;;;;;;;;;;;23.20;99.90;;;;;;5045230;28;20120;-70
2022/08/04 08:31:06;;;;;;;4.38;2.20;;;23.30;99.90;;;;;;5026332;28;19917;-73
2022/08/04 08:33:32;;;;;;;;;;;23.30;99.90;;;;;;5132104;22;20083;-71
2022/08/04 08:36:08;;;;;;;4.70;2.22;;;23.20;99.90;;;;;;5059039;28;19920;-71
2022/08/04 08:38:53;;;;;;;;;;;23.30;99.90;;;;;;5060484;28;20072;-72
2022/08/04 08:41:50;;;;;;;2.85;1.35;;;23.40;99.90;;;;;;5057676;28;19917;-71
2022/08/04 08:44:48;;;;;;;4.50;1.80;;;23.50;99.90;;;;;;5042590;28;20127;-71
2022/08/04 08:47:46;;;;;;;4.30;1.70;;;23.50;99.90;;;;;;5048098;28;20033;-72
2022/08/04 08:50:17;;;;;;;5.47;1.55;;;23.60;99.90;;;;;;5043254;28;20276;-71
2022/08/04 08:52:52;;;;;;;4.95;1.55;;;23.60;99.90;;;;;;5036687;28;20375;-71
2022/08/04 08:55:36;;;;;;;4.50;1.60;;;23.70;99.90;;;;;;5036782;28;20084;-71
2022/08/04 08:58:38;;;;;;;5.90;1.60;;;23.80;99.90;;;;;;5038089;28;20114;-71
2022/08/04 09:01:26;;;;;;;5.05;1.10;;;23.80;99.90;;;;;;5041852;28;20120;-72
2022/08/04 09:04:01;;;;;;;4.45;1.00;;;23.90;99.90;;;;;;5038875;28;20444;-71
2022/08/04 09:06:41;;;;;;;4.63;1.30;;;23.90;99.90;;;;;;5041558;28;20034;-71
2022/08/04 09:09:14;;;;;;;3.67;1.42;;;24.00;99.90;;;;;;5040592;28;20448;-72
2022/08/04 09:11:54;;;;;;;3.88;1.00;;;24.10;99.90;;;;;;5043958;28;20382;-72
2022/08/04 09:14:26;;;;;;;5.32;1.58;;;24.20;99.90;;;;;;5040949;28;20029;-71
2022/08/04 09:17:04;;;;;;;4.32;1.35;;;24.30;99.90;;;;;;5045836;28;20516;-71
2022/08/04 09:19:44;;;;;;;3.42;1.60;;;24.40;99.90;;;;;;5049091;28;20839;-71
2022/08/04 09:22:34;;;;;;;5.10;1.65;;;24.50;99.90;;;;;;5045327;28;20055;-71
2022/08/04 09:25:24;;;;;;;3.17;1.38;;;24.60;99.90;;;;;;5049602;28;20036;-71
2022/08/04 09:27:58;;;;;;;6.53;1.85;;;24.60;99.90;;;;;;5025364;28;20142;-71
2022/08/04 09:30:53;;;;;;;2.55;1.35;;;24.70;99.90;;;;;;5057837;28;20406;-71
2022/08/04 09:33:36;;;;;;;4.15;1.38;;;24.80;99.90;;;;;;5046159;28;20094;-72
2022/08/04 09:36:27;;;;;;;4.88;1.25;;;24.90;99.90;;;;;;5042406;28;20041;-71
2022/08/04 09:39:25;;;;;;;5.25;1.63;;;25.00;99.90;;;;;;5046380;28;20127;-71
2022/08/04 09:42:09;;;;;;;5.72;1.30;;;25.20;99.90;;;;;;5046643;28;20669;-72
2022/08/04 09:44:46;;;;;;;2.40;1.10;;;25.30;99.90;;;;;;5046798;28;20102;-71
2022/08/04 09:47:38;;;;;;;2.65;0.90;;;25.40;99.90;;;;;;5051727;28;20037;-71
2022/08/04 09:50:21;;;;;;;5.38;1.48;;;25.40;99.90;;;;;;5045148;28;20120;-72
2022/08/04 09:53:02;;;;;;;2.10;0.80;;;25.30;99.90;;;;;;5040637;28;20055;-72
2022/08/04 09:55:39;;;;;;;3.63;0.90;;;25.30;99.90;;;;;;5041549;28;20059;-72
2022/08/04 09:58:27;;;;;;;3.55;1.00;;;25.30;99.90;;;;;;5041608;28;20040;-72
2022/08/04 10:01:00;;;;;;;2.33;0.80;;;25.40;99.90;;;;;;5024042;28;20048;-71
2022/08/04 10:03:32;;;;;;;4.93;1.17;;;25.50;99.90;;;;;;5042159;28;20501;-71
2022/08/04 10:06:18;;;;;;;1.58;0.75;;;25.70;99.90;;;;;;5041600;28;20294;-71
2022/08/04 10:09:14;;;;;;;1.00;0.60;;;25.80;99.90;;;;;;5037845;28;20064;-71
2022/08/04 10:11:58;;;;;;;2.20;1.00;;;25.80;99.90;;;;;;5045641;28;20465;-71
2022/08/04 10:14:55;;;;;;;1.77;0.70;;;25.80;99.90;;;;;;5047163;28;20516;-72
2022/08/04 10:17:26;;;;;;;2.25;0.60;;;25.90;99.90;;;;;;5046878;28;20217;-71
2022/08/04 10:20:07;;;;;;;2.30;0.70;;;26.00;99.90;;;;;;5044098;28;20068;-71
2022/08/04 10:22:42;;;;;;;1.23;0.57;;;26.00;99.90;;;;;;5040386;28;20366;-72
2022/08/04 10:25:29;;;;;;;2.47;0.80;;;26.00;99.90;;;;;;5045119;28;20029;-72
2022/08/04 10:27:59;;;;;;;1.25;0.40;;;26.10;99.90;;;;;;5042824;28;20056;-72
2022/08/04 10:30:27;;;;;;;1.55;0.70;;;26.20;99.90;;;;;;5047924;28;20343;-72
2022/08/04 10:33:01;;;;;;;1.63;0.70;;;26.30;99.90;;;;;;5040202;28;20398;-71
2022/08/04 10:35:36;;;;;;;0.98;0.60;;;26.40;99.90;;;;;;5041301;28;20041;-71
2022/08/04 10:38:07;;;;;;;3.65;0.90;;;26.60;99.90;;;;;;5046113;28;20044;-72
2022/08/04 10:40:44;;;;;;;2.08;0.60;;;26.60;99.90;;;;;;5042209;28;20052;-71
2022/08/04 10:43:34;;;;;;;0.98;0.60;;;26.60;99.90;;;;;;5048402;28;20061;-71
2022/08/04 10:46:03;;;;;;;2.47;0.90;;;26.50;99.90;;;;;;5049663;28;20033;-71
2022/08/04 10:48:42;;;;;;;1.15;0.70;;;26.50;99.90;;;;;;5045769;28;20056;-71
2022/08/04 10:51:27;;;;;;;2.33;0.80;;;26.50;99.90;;;;;;5044977;28;20097;-71
2022/08/04 10:54:09;;;;;;;2.78;0.68;;;26.40;99.90;;;;;;5045760;28;20099;-71
2022/08/04 10:56:40;;;;;;;3.08;0.60;;;26.40;99.90;;;;;;5045306;28;20044;-71
2022/08/04 10:59:17;;;;;;;3.58;0.63;;;26.30;99.90;;;;;;5048322;28;20150;-72
2022/08/04 11:01:47;;;;;;;2.42;0.90;;;26.20;99.90;;;;;;5052016;28;20430;-71
2022/08/04 11:04:46;;;;;;;2.47;0.80;;;26.30;99.90;;;;;;5040187;28;20037;-71
2022/08/04 11:07:14;;;;;;;1.63;0.88;;;26.30;99.90;;;;;;5044740;28;20037;-71
2022/08/04 11:09:42;;;;;;;1.05;0.55;;;26.20;99.90;;;;;;5045116;28;20083;-72
2022/08/04 11:12:23;;;;;;;1.83;0.82;;;26.20;99.90;;;;;;5043835;28;20040;-71
2022/08/04 11:15:00;;;;;;;1.02;0.45;;;26.10;99.90;;;;;;5043001;28;20052;-71
2022/08/04 11:17:34;;;;;;;1.98;0.80;;;26.00;99.90;;;;;;5046152;28;20041;-71
2022/08/04 11:20:10;;;;;;;1.60;0.70;;;26.00;99.90;;;;;;5035855;28;20097;-71
2022/08/04 11:22:46;;;;;;;1.40;0.70;;;25.90;99.90;;;;;;5042954;28;20090;-71
2022/08/04 11:25:25;;;;;;;1.67;0.57;;;25.90;99.90;;;;;;5042639;28;20094;-71
2022/08/04 11:28:11;;;;;;;0.80;0.40;;;25.90;99.90;;;;;;5041646;28;20087;-71
2022/08/04 11:30:50;;;;;;;;;;;25.80;99.90;;;;;;5044299;28;20111;-71
2022/08/04 11:33:53;;;;;;;0.95;0.40;;;25.80;99.90;;;;;;5044035;28;19924;-71
2022/08/04 11:36:48;;;;;;;2.33;0.52;;;25.70;99.90;;;;;;5038090;28;20067;-71
2022/08/04 11:39:36;;;;;;;1.02;0.50;;;25.70;99.90;;;;;;5045181;28;20187;-71
2022/08/04 11:42:35;;;;;;;1.52;0.68;;;25.60;99.90;;;;;;5038669;28;20189;-71
2022/08/04 11:45:03;;;;;;;1.80;0.75;;;25.60;99.90;;;;;;5045019;28;20047;-71
2022/08/04 11:47:42;;;;;;;2.63;0.70;;;25.70;99.90;;;;;;5045710;28;20449;-71
2022/08/04 11:50:20;;;;;;;1.13;0.45;;;25.60;99.90;;;;;;5042934;28;20052;-71
2022/08/04 11:52:46;;;;;;;1.35;0.63;;;25.50;99.90;;;;;;5044233;28;20258;-71
2022/08/04 11:55:16;;;;;;;0.80;0.50;;;25.40;99.90;;;;;;5039005;28;20122;-71
2022/08/04 11:57:43;;;;;;;1.98;0.50;;;25.40;99.90;;;;;;5043301;28;20037;-71
2022/08/04 12:00:12;;;;;;;1.92;0.50;;;25.40;99.90;;;;;;5042728;28;20040;-71
2022/08/04 12:02:59;;;;;;;1.70;0.47;;;25.40;99.90;;;;;;5046962;28;20473;-71
2022/08/04 12:05:31;;;;;;;0.68;0.40;;;25.40;99.90;;;;;;5039076;28;20095;-71
2022/08/04 12:08:06;;;;;;;0.88;0.40;;;25.20;99.90;;;;;;5038719;28;20395;-72
2022/08/04 12:10:41;;;;;;;0.88;0.40;;;25.20;99.90;;;;;;5038679;28;20041;-71
2022/08/04 12:13:23;;;;;;;3.17;0.70;;;25.20;99.90;;;;;;5044171;28;20131;-71
2022/08/04 12:16:03;;;;;;;1.70;0.55;;;25.20;99.90;;;;;;5047226;28;20055;-71
2022/08/04 12:18:33;;;;;;;1.17;0.50;;;25.20;99.90;;;;;;5040120;28;20443;-71
2022/08/04 12:21:10;;;;;;;1.83;0.75;;;25.30;99.90;;;;;;5041673;28;20056;-71
2022/08/04 12:23:38;;;;;;;1.33;0.57;;;25.30;99.90;;;;;;5043178;28;20481;-71
2022/08/04 12:26:07;;;;;;;1.95;0.70;;;25.40;99.90;;;;;;5043642;28;20040;-71
2022/08/04 12:28:40;;;;;;;1.98;0.40;;;25.50;99.90;;;;;;5066089;28;20040;-72
2022/08/04 12:31:25;;;;;;;1.73;0.65;;;25.50;99.90;;;;;;5042825;28;20287;-72
2022/08/04 12:33:53;;;;;;;2.38;0.70;;;25.60;99.90;;;;;;5037700;28;20397;-71
2022/08/04 12:36:26;;;;;;;1.92;0.70;;;25.70;99.90;;;;;;5042556;28;20095;-72
2022/08/04 12:39:01;;;;;;;1.83;0.90;;;25.70;99.90;;;;;;5040093;28;20037;-71
2022/08/04 12:41:35;;;;;;;3.72;0.75;;;25.80;99.90;;;;;;5023118;28;20055;-71
2022/08/04 12:44:06;;;;;;;1.75;0.60;;;25.90;99.90;;;;;;5041960;28;20441;-71
2022/08/04 12:46:33;;;;;;;1.30;0.50;;;25.80;99.90;;;;;;5043469;28;20174;-72
2022/08/04 12:49:02;;;;;;;3.53;0.63;;;26.00;99.90;;;;;;5042941;28;20091;-72
2022/08/04 12:51:27;;;;;;;3.25;0.63;;;26.00;99.90;;;;;;5045687;28;20382;-71
2022/08/04 12:53:54;;;;;;;3.70;0.90;;;26.10;99.90;;;;;;5041662;28;20055;-71
2022/08/04 12:56:29;;;;;;;1.10;0.60;;;26.20;99.90;;;;;;5044959;28;20398;-72
2022/08/04 12:59:02;;;;;;;1.02;0.43;;;26.50;99.90;;;;;;5049987;28;20323;-71
2022/08/04 13:01:28;;;;;;;2.17;0.57;;;26.50;99.90;;;;;;5043290;28;20132;-71
2022/08/04 13:04:12;;;;;;;1.17;0.57;;;26.70;99.90;;;;;;5041427;28;20033;-71
2022/08/04 13:06:38;;;;;;;3.42;0.50;;;26.80;99.10;;;;;;5050352;28;20231;-72
2022/08/04 13:09:16;;;;;;;1.02;0.50;;;26.80;98.10;;;;;;5044614;28;20059;-71
2022/08/04 13:11:50;;;;;;;3.00;0.80;;;26.70;97.60;;;;;;5040001;28;20351;-72
2022/08/04 13:14:17;;;;;;;0.55;0.35;;;26.70;98.60;;;;;;5042446;28;20041;-71
2022/08/04 13:16:43;;;;;;;1.00;0.50;;;26.70;99.20;;;;;;5047468;28;20090;-72
2022/08/04 13:19:09;;;;;;;1.27;0.50;;;26.80;99.60;;;;;;5051566;28;20040;-71
2022/08/04 13:21:46;;;;;;;1.10;0.93;;;27.00;99.80;;;;;;5044048;28;20037;-72
2022/08/04 13:24:16;;;;;;;1.70;0.60;;;27.00;97.00;;;;;;5039196;28;20390;-72
2022/08/04 13:26:56;;;;;;;0.80;0.30;;;27.10;98.70;;;;;;5041098;28;20037;-72
2022/08/04 13:29:35;;;;;;;2.97;0.50;;;27.10;96.70;;;;;;5039675;28;20133;-71
2022/08/04 13:32:03;;;;;;;1.15;0.50;;;27.10;96.20;;;;;;5039719;28;20036;-71
2022/08/04 13:34:30;;;;;;;1.45;0.55;;;27.10;96.50;;;;;;5037528;28;20071;-71
2022/08/04 13:36:57;;;;;;;1.23;0.70;;;27.00;95.10;;;;;;5039738;28;20327;-71
2022/08/04 13:39:24;;;;;;;1.30;0.70;;;27.00;95.70;;;;;;5045401;28;20044;-72